Time,TemperatureF,DewpointF,PressureIn,WindDirection,WindDirectionDegrees,WindSpeedMPH,WindSpeedGustMPH,Humidity,HourlyPrecipIn,Conditions,Clouds,dailyrainin,SoftwareType,DateUTC
2013-03-09 00:01:00,30.0,28.0,29.85,NE,51,1.0,3.0,92,0.00,,,0.00,,2013-03-09 07:01:00,
2013-03-09 00:11:00,30.0,28.0,29.85,NE,51,1.0,3.0,92,0.00,,,0.00,,2013-03-09 07:11:00,
2013-03-09 00:21:00,30.0,28.0,29.85,NE,51,1.0,3.0,92,0.00,,,0.00,,2013-03-09 07:21:00,
2013-03-09 00:31:00,30.0,28.0,29.84,NE,51,0.0,4.0,92,0.00,,,0.00,,2013-03-09 07:31:00,
2013-03-09 00:41:00,30.0,28.0,29.84,NE,51,0.0,4.0,92,0.00,,,0.00,,2013-03-09 07:41:00,
2013-03-09 00:52:00,30.0,28.0,29.84,NE,51,0.0,4.0,92,0.00,,,0.00,,2013-03-09 07:52:00,
2013-03-09 01:01:00,30.0,28.0,29.84,NE,51,0.0,4.0,92,0.00,,,0.00,,2013-03-09 08:01:00,
2013-03-09 01:11:00,30.0,28.0,29.84,NE,51,0.0,4.0,92,0.00,,,0.00,,2013-03-09 08:11:00,
2013-03-09 03:22:00,29.0,27.0,29.82,NE,51,0.0,0.0,92,0.00,,,0.00,,2013-03-09 10:22:00,
2013-03-09 03:32:00,30.0,28.0,29.82,NE,51,0.0,2.0,92,0.00,,,0.00,,2013-03-09 10:32:00,
2013-03-09 03:42:00,30.0,28.0,29.82,NE,51,0.0,2.0,92,0.00,,,0.00,,2013-03-09 10:42:00,
2013-03-09 03:52:00,30.0,28.0,29.82,NE,51,0.0,3.0,92,0.00,,,0.00,,2013-03-09 10:52:00,
2013-03-09 04:01:00,30.0,28.0,29.81,NW,326,4.0,6.0,92,0.00,,,0.00,,2013-03-09 11:01:00,
2013-03-09 04:11:00,30.0,28.0,29.81,NW,326,4.0,6.0,92,0.00,,,0.00,,2013-03-09 11:11:00,
2013-03-09 04:21:00,30.0,28.0,29.81,NW,326,4.0,6.0,92,0.00,,,0.00,,2013-03-09 11:21:00,
2013-03-09 04:32:00,30.0,28.0,29.81,NW,326,4.0,6.0,92,0.00,,,0.00,,2013-03-09 11:32:00,
2013-03-09 04:42:00,30.0,28.0,29.81,NW,326,4.0,6.0,92,0.00,,,0.00,,2013-03-09 11:42:00,
2013-03-09 06:52:00,32.0,29.0,29.85,NW,317,8.0,13.0,90,0.00,,,0.00,,2013-03-09 13:52:00,
2013-03-09 07:01:00,32.0,29.0,29.85,NW,321,8.0,13.0,89,0.00,,,0.00,,2013-03-09 14:01:00,
2013-03-09 07:11:00,32.0,29.0,29.85,NW,321,8.0,13.0,89,0.00,,,0.00,,2013-03-09 14:11:00,
2013-03-09 07:21:00,32.0,29.0,29.86,NNW,340,8.0,16.0,87,0.00,,,0.00,,2013-03-09 14:21:00,
2013-03-09 07:32:00,31.0,27.0,29.86,NNW,338,7.0,10.0,86,0.00,,,0.00,,2013-03-09 14:32:00,
2013-03-09 07:42:00,31.0,27.0,29.86,NNW,338,7.0,10.0,86,0.00,,,0.00,,2013-03-09 14:42:00,
2013-03-09 07:52:00,31.0,27.0,29.86,NNW,338,7.0,10.0,86,0.00,,,0.00,,2013-03-09 14:52:00,
2013-03-09 08:01:00,31.0,27.0,29.86,NNW,338,7.0,10.0,86,0.00,,,0.00,,2013-03-09 15:01:00,
2013-03-09 08:11:00,31.0,27.0,29.86,NNW,338,7.0,10.0,86,0.00,,,0.00,,2013-03-09 15:11:00,
2013-03-09 10:22:00,28.0,24.0,29.92,NNW,339,11.0,18.0,86,0.00,,,0.00,,2013-03-09 17:22:00,
2013-03-09 10:32:00,29.0,25.0,29.93,NW,312,9.0,14.0,85,0.00,,,0.00,,2013-03-09 17:32:00,
2013-03-09 10:42:00,29.0,25.0,29.93,NW,312,9.0,14.0,85,0.00,,,0.00,,2013-03-09 17:42:00,
2013-03-09 10:52:00,30.0,25.0,29.93,NNW,332,10.0,18.0,83,0.00,,,0.00,,2013-03-09 17:52:00,
2013-03-09 11:01:00,30.0,25.0,29.93,NW,320,9.0,17.0,82,0.00,,,0.00,,2013-03-09 18:01:00,
2013-03-09 11:11:00,30.0,25.0,29.93,NW,320,9.0,17.0,82,0.00,,,0.00,,2013-03-09 18:11:00,
2013-03-09 11:21:00,30.0,25.0,29.93,NNW,343,8.0,16.0,81,0.00,,,0.00,,2013-03-09 18:21:00,
2013-03-09 11:31:00,30.0,25.0,29.93,NNW,343,8.0,16.0,81,0.00,,,0.00,,2013-03-09 18:31:00,
2013-03-09 11:42:00,30.0,25.0,29.93,NNW,343,8.0,16.0,81,0.00,,,0.00,,2013-03-09 18:42:00,
2013-03-09 11:52:00,30.0,25.0,29.93,NNW,343,8.0,16.0,81,0.00,,,0.00,,2013-03-09 18:52:00,
2013-03-09 14:02:00,35.0,27.0,29.94,NNW,344,13.0,20.0,72,0.00,,,0.00,,2013-03-09 21:02:00,
2013-03-09 14:12:00,35.0,27.0,29.94,NNW,344,13.0,20.0,72,0.00,,,0.00,,2013-03-09 21:12:00,
2013-03-09 14:22:00,35.0,27.0,29.94,NW,305,17.0,24.0,72,0.00,,,0.00,,2013-03-09 21:22:00,
2013-03-09 14:32:00,36.0,27.0,29.95,NNW,328,14.0,21.0,70,0.00,,,0.00,,2013-03-09 21:32:00,
2013-03-09 14:42:00,36.0,27.0,29.95,NNW,328,14.0,21.0,70,0.00,,,0.00,,2013-03-09 21:42:00,
2013-03-09 14:52:00,35.0,27.0,29.96,NW,313,15.0,23.0,71,0.00,,,0.00,,2013-03-09 21:52:00,
2013-03-09 15:01:00,35.0,27.0,29.96,NW,313,15.0,23.0,71,0.00,,,0.00,,2013-03-09 22:01:00,
2013-03-09 15:11:00,35.0,27.0,29.96,NW,313,15.0,23.0,71,0.00,,,0.00,,2013-03-09 22:11:00,
2013-03-09 15:21:00,35.0,27.0,29.96,NW,313,15.0,23.0,71,0.00,,,0.00,,2013-03-09 22:21:00,
2013-03-09 17:32:00,33.0,25.0,30.02,North,355,8.0,14.0,73,0.00,,,0.00,,2013-03-10 00:32:00,
2013-03-09 17:43:00,33.0,25.0,30.02,North,355,8.0,14.0,73,0.00,,,0.00,,2013-03-10 00:43:00,
2013-03-09 17:52:00,32.0,24.0,30.03,North,355,10.0,17.0,72,0.00,,,0.00,,2013-03-10 00:52:00,
2013-03-09 18:01:00,30.0,22.0,30.03,NNW,342,8.0,13.0,73,0.00,,,0.00,,2013-03-10 01:01:00,
2013-03-09 18:11:00,30.0,22.0,30.03,NNW,342,8.0,13.0,73,0.00,,,0.00,,2013-03-10 01:11:00,
2013-03-09 18:21:00,30.0,23.0,30.05,North,5,4.0,7.0,76,0.00,,,0.00,,2013-03-10 01:21:00,
2013-03-09 18:31:00,30.0,23.0,30.05,North,5,4.0,7.0,76,0.00,,,0.00,,2013-03-10 01:31:00,
2013-03-09 18:41:00,30.0,23.0,30.05,North,5,4.0,7.0,76,0.00,,,0.00,,2013-03-10 01:41:00,
2013-03-09 18:52:00,30.0,23.0,30.05,North,5,4.0,7.0,76,0.00,,,0.00,,2013-03-10 01:52:00,
2013-03-09 19:01:00,30.0,23.0,30.05,North,5,4.0,7.0,76,0.00,,,0.00,,2013-03-10 02:01:00,
2013-03-09 21:22:00,23.0,18.0,30.14,NNE,21,0.0,3.0,82,0.00,,,0.00,,2013-03-10 04:22:00,
2013-03-09 21:32:00,23.0,19.0,30.14,NNW,338,3.0,5.0,83,0.00,,,0.00,,2013-03-10 04:32:00,
2013-03-09 21:42:00,23.0,19.0,30.14,NNW,338,3.0,5.0,83,0.00,,,0.00,,2013-03-10 04:42:00,
2013-03-09 21:52:00,23.0,19.0,30.15,NNW,338,3.0,6.0,84,0.00,,,0.00,,2013-03-10 04:52:00,
2013-03-09 22:01:00,22.0,18.0,30.16,NNW,333,5.0,7.0,83,0.00,,,0.00,,2013-03-10 05:01:00,
2013-03-09 22:11:00,22.0,18.0,30.16,NNW,333,5.0,7.0,83,0.00,,,0.00,,2013-03-10 05:11:00,
2013-03-09 22:22:00,22.0,18.0,30.16,NNW,333,5.0,7.0,83,0.00,,,0.00,,2013-03-10 05:22:00,
2013-03-09 22:31:00,22.0,18.0,30.16,NNW,333,5.0,7.0,83,0.00,,,0.00,,2013-03-10 05:31:00,
2013-03-09 22:42:00,22.0,18.0,30.16,NNW,333,5.0,7.0,83,0.00,,,0.00,,2013-03-10 05:42:00,